createdAt,value
2019-03-15T00:00:47.643Z,91.13
2019-03-15T00:01:47.632Z,88.82
2019-03-15T00:02:47.620Z,90.37
2019-03-15T00:03:47.611Z,90.68
2019-03-15T00:04:47.607Z,88.61
2019-03-15T00:05:47.597Z,90.26
2019-03-15T00:06:47.584Z,91.20
2019-03-15T00:07:47.565Z,91.09
2019-03-15T00:08:47.552Z,90.93
2019-03-15T00:09:48.492Z,90.06
2019-03-15T00:10:47.588Z,90.31
2019-03-15T00:11:47.519Z,89.03
2019-03-15T00:12:47.507Z,89.13
2019-03-15T00:13:47.496Z,88.45
2019-03-15T00:14:47.485Z,89.13
2019-03-15T00:15:47.476Z,89.13
2019-03-15T00:16:47.483Z,89.07
2019-03-15T00:17:47.452Z,89.34
2019-03-15T00:18:47.442Z,87.99
2019-03-15T00:19:47.443Z,88.31
2019-03-15T00:20:47.417Z,88.82
2019-03-15T00:21:47.411Z,89.23
2019-03-15T00:22:47.402Z,88.41
2019-03-15T00:23:47.384Z,88.82
2019-03-15T00:24:47.387Z,89.23
2019-03-15T00:25:47.368Z,89.95
2019-03-15T00:26:47.351Z,90.37
2019-03-15T00:27:47.339Z,90.00
2019-03-15T00:28:47.335Z,89.59
2019-03-15T00:29:47.331Z,89.86
2019-03-15T00:30:47.316Z,89.95
2019-03-15T00:31:47.307Z,90.00
2019-03-15T00:32:47.283Z,88.92
2019-03-15T00:33:47.271Z,88.51
2019-03-15T00:34:47.266Z,88.82
2019-03-15T00:35:47.248Z,88.51
2019-03-15T00:36:47.258Z,87.89
2019-03-15T00:37:47.238Z,87.48
2019-03-15T00:38:47.216Z,88.61
2019-03-15T00:39:47.539Z,89.44
2019-03-15T00:40:47.201Z,89.38
2019-03-15T00:41:47.181Z,90.26
2019-03-15T00:42:47.181Z,88.61
2019-03-15T00:43:49.465Z,89.13
2019-03-15T00:44:47.159Z,88.10
2019-03-15T00:45:47.144Z,88.51
2019-03-15T00:46:47.133Z,87.99
2019-03-15T00:47:47.139Z,87.48
2019-03-15T00:48:47.102Z,89.23
2019-03-15T00:49:47.265Z,88.92
2019-03-15T00:50:47.086Z,89.65
2019-03-15T00:51:47.068Z,89.23
2019-03-15T00:52:47.087Z,89.34
2019-03-15T00:53:47.059Z,89.23
2019-03-15T00:54:47.055Z,87.83
2019-03-15T00:55:47.033Z,88.34
2019-03-15T00:56:47.011Z,89.23
2019-03-15T00:57:47.035Z,88.51
2019-03-15T00:58:46.998Z,88.61
2019-03-15T00:59:46.980Z,90.41
2019-03-15T01:00:46.970Z,88.34
2019-03-15T01:01:46.956Z,90.00
2019-03-15T01:02:46.946Z,89.17
2019-03-15T01:03:46.946Z,88.86
2019-03-15T01:04:46.941Z,89.69
2019-03-15T01:05:46.920Z,88.96
2019-03-15T01:06:46.900Z,88.10
2019-03-15T01:07:46.895Z,88.41
2019-03-15T01:08:46.876Z,88.61
2019-03-15T01:09:46.888Z,89.17
2019-03-15T01:10:46.853Z,89.54
2019-03-15T01:11:46.855Z,89.17
2019-03-15T01:12:46.831Z,88.76
2019-03-15T01:13:46.819Z,89.69
2019-03-15T01:14:46.810Z,89.28
2019-03-15T01:15:46.812Z,88.96
2019-03-15T01:16:46.785Z,89.79
2019-03-15T01:17:46.783Z,88.96
2019-03-15T01:18:46.765Z,89.48
2019-03-15T01:19:46.775Z,90.00
2019-03-15T01:20:46.741Z,89.07
2019-03-15T01:21:46.731Z,88.96
2019-03-15T01:22:46.719Z,87.99
2019-03-15T01:23:46.737Z,89.48
2019-03-15T01:24:46.696Z,88.65
2019-03-15T01:25:46.698Z,89.48
2019-03-15T01:26:46.675Z,89.03
2019-03-15T01:27:46.665Z,89.17
2019-03-15T01:28:46.650Z,89.28
2019-03-15T01:29:46.655Z,89.28
2019-03-15T01:30:46.640Z,89.28
2019-03-15T01:31:46.619Z,88.86
2019-03-15T01:32:46.625Z,89.17
2019-03-15T01:33:46.595Z,90.31
2019-03-15T01:34:46.592Z,89.38
2019-03-15T01:35:46.591Z,89.28
2019-03-15T01:36:46.560Z,88.65
2019-03-15T01:37:46.561Z,89.17
2019-03-15T01:38:46.538Z,89.28
2019-03-15T01:39:46.527Z,89.28
2019-03-15T01:40:48.773Z,87.99
2019-03-15T01:41:46.509Z,89.13
2019-03-15T01:42:46.522Z,89.28
2019-03-15T01:43:46.481Z,88.10
2019-03-15T01:44:46.471Z,88.31
2019-03-15T01:45:46.478Z,88.82
2019-03-15T01:46:46.448Z,88.82
2019-03-15T01:47:46.441Z,88.82
2019-03-15T01:48:46.435Z,88.14
2019-03-15T01:49:46.414Z,88.65
2019-03-15T01:50:46.410Z,89.07
2019-03-15T01:51:46.392Z,88.96
2019-03-15T01:52:46.387Z,90.52
2019-03-15T01:53:46.422Z,90.66
2019-03-15T01:54:46.356Z,90.41
2019-03-15T01:55:46.346Z,90.25
2019-03-15T01:56:46.335Z,90.87
2019-03-15T01:57:46.326Z,90.25
2019-03-15T01:58:46.314Z,89.01
2019-03-15T01:59:46.321Z,89.11
2019-03-15T02:00:46.289Z,89.11
2019-03-15T02:01:46.279Z,87.83
2019-03-15T02:02:46.268Z,88.45
2019-03-15T02:03:46.256Z,88.55
2019-03-15T02:04:46.268Z,88.28
2019-03-15T02:05:46.251Z,88.14
2019-03-15T02:06:46.221Z,88.96
2019-03-15T02:07:46.210Z,89.83
2019-03-15T02:08:46.200Z,89.11
2019-03-15T02:09:46.186Z,88.14
2019-03-15T02:10:46.188Z,88.55
2019-03-15T02:11:46.172Z,88.76
2019-03-15T02:12:46.156Z,88.96
2019-03-15T02:13:46.142Z,89.07
2019-03-15T02:14:46.135Z,88.86
2019-03-15T02:15:46.134Z,88.41
2019-03-15T02:16:46.113Z,89.23
2019-03-15T02:17:46.116Z,88.82
2019-03-15T02:18:46.087Z,89.28
2019-03-15T02:19:46.076Z,87.99
2019-03-15T02:20:46.064Z,88.51
2019-03-15T02:21:46.053Z,89.03
2019-03-15T02:22:46.051Z,88.51
2019-03-15T02:23:46.038Z,87.68
2019-03-15T02:24:46.019Z,88.10
2019-03-15T02:25:46.023Z,87.27
2019-03-15T02:26:45.994Z,88.20
2019-03-15T02:27:45.997Z,88.20
2019-03-15T02:28:46.007Z,89.03
2019-03-15T02:29:45.979Z,89.23
2019-03-15T02:30:45.951Z,89.23
2019-03-15T02:31:47.097Z,89.34
2019-03-15T02:32:45.939Z,90.58
2019-03-15T02:33:45.920Z,89.13
2019-03-15T02:34:45.918Z,89.17
2019-03-15T02:35:47.107Z,89.69
2019-03-15T02:36:45.897Z,90.47
2019-03-15T02:37:45.876Z,90.16
2019-03-15T02:38:45.862Z,90.72
2019-03-15T02:39:46.287Z,90.93
2019-03-15T02:40:45.841Z,90.10
2019-03-15T02:41:45.834Z,90.41
2019-03-15T02:42:45.829Z,90.31
2019-03-15T02:43:46.136Z,90.41
2019-03-15T02:44:45.796Z,90.31
2019-03-15T02:45:45.807Z,90.97
2019-03-15T02:46:45.773Z,90.77
2019-03-15T02:47:46.572Z,90.87
2019-03-15T02:48:45.764Z,90.87
2019-03-15T02:49:45.740Z,90.97
2019-03-15T02:50:45.726Z,90.56
2019-03-15T02:51:45.715Z,90.45
2019-03-15T02:52:45.705Z,90.87
2019-03-15T02:53:45.714Z,91.28
2019-03-15T02:54:45.683Z,90.45
2019-03-15T02:55:45.674Z,90.14
2019-03-15T02:56:45.671Z,90.62
2019-03-15T02:57:45.655Z,90.41
2019-03-15T02:58:45.654Z,90.41
2019-03-15T02:59:47.131Z,90.41
2019-03-15T03:00:45.646Z,90.00
2019-03-15T03:01:45.606Z,90.41
2019-03-15T03:02:45.614Z,89.17
2019-03-15T03:03:47.143Z,89.89
2019-03-15T03:04:45.569Z,89.17
2019-03-15T03:05:45.573Z,89.23
2019-03-15T03:06:45.552Z,89.34
2019-03-15T03:07:45.535Z,90.10
2019-03-15T03:08:45.552Z,90.06
2019-03-15T03:09:45.513Z,90.00
2019-03-15T03:10:45.506Z,89.38
2019-03-15T03:11:45.505Z,90.37
2019-03-15T03:12:45.484Z,90.20
2019-03-15T03:13:45.475Z,89.28
2019-03-15T03:14:45.470Z,89.86
2019-03-15T03:15:45.446Z,89.69
2019-03-15T03:16:46.142Z,90.16
2019-03-15T03:17:45.436Z,88.86
2019-03-15T03:18:45.424Z,88.96
2019-03-15T03:19:45.401Z,89.07
2019-03-15T03:20:45.395Z,89.89
2019-03-15T03:21:45.377Z,89.89
2019-03-15T03:22:45.371Z,90.45
2019-03-15T03:23:45.381Z,90.56
2019-03-15T03:24:45.346Z,90.14
2019-03-15T03:25:45.346Z,90.56
2019-03-15T03:26:45.333Z,91.07
2019-03-15T03:27:45.312Z,91.07
2019-03-15T03:28:45.306Z,90.87
2019-03-15T03:29:45.298Z,90.77
2019-03-15T03:30:46.609Z,90.20
2019-03-15T03:31:46.001Z,90.31
2019-03-15T03:32:45.268Z,91.03
2019-03-15T03:33:45.264Z,90.41
2019-03-15T03:34:45.235Z,91.24
2019-03-15T03:35:45.244Z,91.13
2019-03-15T03:36:45.223Z,90.20
2019-03-15T03:37:45.533Z,90.41
2019-03-15T03:38:45.186Z,91.03
2019-03-15T03:39:45.183Z,90.62
2019-03-15T03:40:45.164Z,90.41
2019-03-15T03:41:45.173Z,89.89
2019-03-15T03:42:45.321Z,90.41
2019-03-15T03:43:45.157Z,91.17
2019-03-15T03:44:45.121Z,90.83
2019-03-15T03:45:45.107Z,90.52
2019-03-15T03:46:45.098Z,91.03
2019-03-15T03:47:45.085Z,89.94
2019-03-15T03:48:45.107Z,91.24
2019-03-15T03:49:45.071Z,90.56
2019-03-15T03:50:45.053Z,90.56
2019-03-15T03:51:45.040Z,90.56
2019-03-15T03:52:45.030Z,90.45
2019-03-15T03:53:45.018Z,90.66
2019-03-15T03:54:45.027Z,91.49
2019-03-15T03:55:44.995Z,90.97
2019-03-15T03:56:44.997Z,91.07
2019-03-15T03:57:44.972Z,91.01
2019-03-15T03:58:44.963Z,90.66
2019-03-15T03:59:44.997Z,90.77
2019-03-15T04:00:44.945Z,90.56
2019-03-15T04:01:44.930Z,90.77
2019-03-15T04:02:44.925Z,91.28
2019-03-15T04:03:44.906Z,92.11
2019-03-15T04:04:44.895Z,92.05
2019-03-15T04:05:44.900Z,91.63
2019-03-15T04:06:44.878Z,92.36
2019-03-15T04:07:44.876Z,92.25
2019-03-15T04:08:44.850Z,92.15
2019-03-15T04:09:44.839Z,92.21
2019-03-15T04:10:44.840Z,92.05
2019-03-15T04:11:54.843Z,91.63
2019-03-15T04:12:45.811Z,91.74
2019-03-15T04:13:44.801Z,92.05
2019-03-15T04:14:44.780Z,91.63
2019-03-15T04:15:44.784Z,92.46
2019-03-15T04:16:44.758Z,92.15
2019-03-15T04:17:44.748Z,91.22
2019-03-15T04:18:44.741Z,92.25
2019-03-15T04:19:44.731Z,91.63
2019-03-15T04:20:44.741Z,92.25
2019-03-15T04:21:44.710Z,91.94
2019-03-15T04:22:44.695Z,91.94
2019-03-15T04:23:44.681Z,92.25
2019-03-15T04:24:44.670Z,92.25
2019-03-15T04:25:44.664Z,91.94
2019-03-15T04:26:44.659Z,91.38
2019-03-15T04:27:44.634Z,92.21
2019-03-15T04:28:44.648Z,92.05
2019-03-15T04:29:44.614Z,91.07
2019-03-15T04:30:44.602Z,91.17
2019-03-15T04:31:44.597Z,90.87
2019-03-15T04:32:44.582Z,90.83
2019-03-15T04:33:44.570Z,92.00
2019-03-15T04:34:44.578Z,90.93
2019-03-15T04:35:44.546Z,90.14
2019-03-15T04:36:44.544Z,90.87
2019-03-15T04:37:44.531Z,90.31
2019-03-15T04:38:44.510Z,91.13
2019-03-15T04:39:44.524Z,89.89
2019-03-15T04:40:44.493Z,90.00
2019-03-15T04:41:44.478Z,91.03
2019-03-15T04:42:44.467Z,90.93
2019-03-15T04:43:44.462Z,90.83
2019-03-15T04:44:44.493Z,90.62
2019-03-15T04:45:44.438Z,90.41
2019-03-15T04:46:44.428Z,90.20
2019-03-15T04:47:44.412Z,90.93
2019-03-15T04:48:44.401Z,90.93
2019-03-15T04:49:44.406Z,90.93
2019-03-15T04:50:44.393Z,89.28
2019-03-15T04:51:44.365Z,88.61
2019-03-15T04:52:44.357Z,89.75
2019-03-15T04:53:44.361Z,89.86
2019-03-15T04:54:44.333Z,90.16
2019-03-15T04:55:44.330Z,90.26
2019-03-15T04:56:44.317Z,90.37
2019-03-15T04:57:44.299Z,90.41
2019-03-15T04:58:44.325Z,90.31
2019-03-15T04:59:44.280Z,90.10
2019-03-15T05:00:44.266Z,90.10
2019-03-15T05:01:44.255Z,90.93
2019-03-15T05:02:44.252Z,91.13
2019-03-15T05:03:44.232Z,90.72
2019-03-15T05:04:44.235Z,91.03
2019-03-15T05:05:44.211Z,91.03
2019-03-15T05:06:44.199Z,90.31
2019-03-15T05:07:44.187Z,90.83
2019-03-15T05:08:44.183Z,91.03
2019-03-15T05:09:44.179Z,90.62
2019-03-15T05:10:44.156Z,90.52
2019-03-15T05:11:44.141Z,90.62
2019-03-15T05:12:44.133Z,91.44
2019-03-15T05:13:44.142Z,91.80
2019-03-15T05:14:44.114Z,91.34
2019-03-15T05:15:44.100Z,90.83
2019-03-15T05:16:44.087Z,91.96
2019-03-15T05:17:44.074Z,91.86
2019-03-15T05:18:44.071Z,92.17
2019-03-15T05:19:44.065Z,91.90
2019-03-15T05:20:44.049Z,92.07
2019-03-15T05:21:44.031Z,91.86
2019-03-15T05:22:44.020Z,90.93
2019-03-15T05:23:44.009Z,91.96
2019-03-15T05:24:44.009Z,90.93
2019-03-15T05:25:44.019Z,90.83
2019-03-15T05:26:43.985Z,91.75
2019-03-15T05:27:43.969Z,91.55
2019-03-15T05:28:43.953Z,91.75
2019-03-15T05:29:43.942Z,91.96
2019-03-15T05:30:43.931Z,92.07
2019-03-15T05:31:43.957Z,91.55
2019-03-15T05:32:43.921Z,91.90
2019-03-15T05:33:43.897Z,91.55
2019-03-15T05:34:43.935Z,92.32
2019-03-15T05:35:43.874Z,92.32
2019-03-15T05:36:43.862Z,92.32
2019-03-15T05:37:43.873Z,93.04
2019-03-15T05:38:43.847Z,92.42
2019-03-15T05:39:43.832Z,92.21
2019-03-15T05:40:43.819Z,92.11
2019-03-15T05:41:43.807Z,92.32
2019-03-15T05:42:43.796Z,92.27
2019-03-15T05:43:43.804Z,91.75
2019-03-15T05:44:43.783Z,91.24
2019-03-15T05:45:43.769Z,91.96
2019-03-15T05:46:43.753Z,91.65
2019-03-15T05:47:43.739Z,91.55
2019-03-15T05:48:43.744Z,90.72
2019-03-15T05:49:43.718Z,91.96
2019-03-15T05:50:43.706Z,91.13
2019-03-15T05:51:43.700Z,91.65
2019-03-15T05:52:43.686Z,90.93
2019-03-15T05:53:43.687Z,91.03
2019-03-15T05:54:43.662Z,90.93
2019-03-15T05:55:43.653Z,90.78
2019-03-15T05:56:43.639Z,91.71
2019-03-15T05:57:43.635Z,91.65
2019-03-15T05:58:45.384Z,91.65
2019-03-15T05:59:43.803Z,91.96
2019-03-15T06:00:43.607Z,91.03
2019-03-15T06:01:43.592Z,91.24
2019-03-15T06:02:43.572Z,90.78
2019-03-15T06:03:48.852Z,91.09
2019-03-15T06:04:44.557Z,91.20
2019-03-15T06:05:43.552Z,90.68
2019-03-15T06:06:43.529Z,90.37
2019-03-15T06:07:43.517Z,90.89
2019-03-15T06:08:43.509Z,91.61
2019-03-15T06:09:43.512Z,91.30
2019-03-15T06:10:43.496Z,90.78
2019-03-15T06:11:43.472Z,91.61
2019-03-15T06:12:43.468Z,91.20
2019-03-15T06:13:43.450Z,91.61
2019-03-15T06:14:46.680Z,91.09
2019-03-15T06:15:43.447Z,91.96
2019-03-15T06:16:43.428Z,91.09
2019-03-15T06:17:43.405Z,90.78
2019-03-15T06:18:43.393Z,90.68
2019-03-15T06:19:43.384Z,90.37
2019-03-15T06:20:43.388Z,90.78
2019-03-15T06:21:43.361Z,91.20
2019-03-15T06:22:43.376Z,91.09
2019-03-15T06:23:43.350Z,91.92
2019-03-15T06:24:43.332Z,90.78
2019-03-15T06:25:43.330Z,90.89
2019-03-15T06:26:43.307Z,91.40
2019-03-15T06:27:43.304Z,91.20
2019-03-15T06:28:43.289Z,91.30
2019-03-15T06:29:43.279Z,91.30
2019-03-15T06:30:43.258Z,90.47
2019-03-15T06:31:43.251Z,90.89
2019-03-15T06:32:43.280Z,91.88
2019-03-15T06:33:43.232Z,90.22
2019-03-15T06:34:43.219Z,89.95
2019-03-15T06:35:43.216Z,90.58
2019-03-15T06:36:43.193Z,90.02
2019-03-15T06:37:43.180Z,90.64
2019-03-15T06:38:43.294Z,90.84
2019-03-15T06:39:43.167Z,90.84
2019-03-15T06:40:43.149Z,90.22
2019-03-15T06:41:43.146Z,89.92
2019-03-15T06:42:43.128Z,90.74
2019-03-15T06:43:43.122Z,90.95
2019-03-15T06:44:43.117Z,90.74
2019-03-15T06:45:43.095Z,89.81
2019-03-15T06:46:43.087Z,90.22
2019-03-15T06:47:43.074Z,89.71
2019-03-15T06:48:45.044Z,90.91
2019-03-15T06:49:43.082Z,90.19
2019-03-15T06:50:43.037Z,89.87
2019-03-15T06:51:43.045Z,89.98
2019-03-15T06:52:43.018Z,90.28
2019-03-15T06:53:43.017Z,89.87
2019-03-15T06:54:42.991Z,89.50
2019-03-15T06:55:42.995Z,90.28
2019-03-15T06:56:42.969Z,89.05
2019-03-15T06:57:42.958Z,88.43
2019-03-15T06:58:42.955Z,89.25
2019-03-15T06:59:42.941Z,89.25
2019-03-15T07:00:42.938Z,89.98
2019-03-15T07:01:42.913Z,89.15
2019-03-15T07:02:42.909Z,88.43
2019-03-15T07:03:42.890Z,89.15
2019-03-15T07:04:42.880Z,90.28
2019-03-15T07:05:42.909Z,90.19
2019-03-15T07:06:42.982Z,89.36
2019-03-15T07:07:42.845Z,89.87
2019-03-15T07:08:42.833Z,90.39
2019-03-15T07:09:42.824Z,90.19
2019-03-15T07:10:44.106Z,89.05
2019-03-15T07:11:42.817Z,87.77
2019-03-15T07:12:42.793Z,88.43
2019-03-15T07:13:42.778Z,87.71
2019-03-15T07:14:42.787Z,87.87
2019-03-15T07:15:44.346Z,88.08
2019-03-15T07:16:42.756Z,87.87
2019-03-15T07:17:42.736Z,87.56
2019-03-15T07:18:42.729Z,87.56
2019-03-15T07:19:42.710Z,87.46
2019-03-15T07:20:42.698Z,87.56
2019-03-15T07:21:42.713Z,89.01
2019-03-15T07:22:42.678Z,88.49
2019-03-15T07:23:42.664Z,88.29
2019-03-15T07:24:43.906Z,88.49
2019-03-15T07:25:42.653Z,89.01
2019-03-15T07:26:43.874Z,87.56
2019-03-15T07:27:43.188Z,88.39
2019-03-15T07:28:42.613Z,87.93
2019-03-15T07:29:42.601Z,88.14
2019-03-15T07:30:42.586Z,88.45
2019-03-15T07:31:42.588Z,88.24
2019-03-15T07:32:42.606Z,87.83
2019-03-15T07:33:42.553Z,87.83
2019-03-15T07:34:42.548Z,85.97
2019-03-15T07:35:42.530Z,85.87
2019-03-15T07:36:42.526Z,86.15
2019-03-15T07:37:45.293Z,85.97
2019-03-15T07:38:42.508Z,86.87
2019-03-15T07:39:42.485Z,87.17
2019-03-15T07:40:42.473Z,87.32
2019-03-15T07:41:42.462Z,87.27
2019-03-15T07:42:42.460Z,87.38
2019-03-15T07:43:42.453Z,86.45
2019-03-15T07:44:42.433Z,86.87
2019-03-15T07:45:42.417Z,86.04
2019-03-15T07:46:42.410Z,86.24
2019-03-15T07:47:42.404Z,85.31
2019-03-15T07:48:42.430Z,85.42
2019-03-15T07:49:42.374Z,85.22
2019-03-15T07:50:42.361Z,85.01
2019-03-15T07:51:42.355Z,86.24
2019-03-15T07:52:42.341Z,84.56
2019-03-15T07:53:42.328Z,85.07
2019-03-15T07:54:42.333Z,84.80
2019-03-15T07:55:42.311Z,84.97
2019-03-15T07:56:42.294Z,85.38
2019-03-15T07:57:42.283Z,83.87
2019-03-15T07:58:42.271Z,84.87
2019-03-15T07:59:42.294Z,85.63
2019-03-15T08:00:42.255Z,86.41
2019-03-15T08:01:42.240Z,85.52
2019-03-15T08:02:42.229Z,84.56
2019-03-15T08:03:42.215Z,84.35
2019-03-15T08:04:42.205Z,86.00
2019-03-15T08:05:42.210Z,84.45
2019-03-15T08:06:42.194Z,85.55
2019-03-15T08:07:45.383Z,85.28
2019-03-15T08:08:42.304Z,86.27
2019-03-15T08:09:42.147Z,84.11
2019-03-15T08:10:42.169Z,86.13
2019-03-15T08:11:42.126Z,84.58
2019-03-15T08:12:42.118Z,83.97
2019-03-15T08:13:42.112Z,83.49
2019-03-15T08:14:42.100Z,84.52
2019-03-15T08:15:42.080Z,84.00
2019-03-15T08:16:42.084Z,83.49
2019-03-15T08:17:42.066Z,85.65
2019-03-15T08:18:42.048Z,84.00
2019-03-15T08:19:42.044Z,85.30
2019-03-15T08:20:42.026Z,85.61
2019-03-15T08:21:42.038Z,83.86
2019-03-15T08:22:42.002Z,84.27
2019-03-15T08:23:41.990Z,83.25
2019-03-15T08:24:51.525Z,85.51
2019-03-15T08:25:42.972Z,83.76
2019-03-15T08:26:41.965Z,84.48
2019-03-15T08:27:42.059Z,83.86
2019-03-15T08:28:41.940Z,82.67
2019-03-15T08:29:41.927Z,84.89
2019-03-15T08:30:41.912Z,83.70
2019-03-15T08:31:41.904Z,84.52
2019-03-15T08:32:43.689Z,85.20
2019-03-15T08:33:41.883Z,84.17
2019-03-15T08:34:41.873Z,82.83
2019-03-15T08:35:41.858Z,83.97
2019-03-15T08:36:41.847Z,84.17
2019-03-15T08:37:41.841Z,83.35
2019-03-15T08:38:47.375Z,82.79
2019-03-15T08:39:42.821Z,83.62
2019-03-15T08:40:41.802Z,84.23
2019-03-15T08:41:41.792Z,83.92
2019-03-15T08:42:41.785Z,83.58
2019-03-15T08:43:41.778Z,82.96
2019-03-15T08:44:41.759Z,82.14
2019-03-15T08:45:41.748Z,82.07
2019-03-15T08:46:41.735Z,82.24
2019-03-15T08:47:41.721Z,83.68
2019-03-15T08:48:41.728Z,83.83
2019-03-15T08:49:41.703Z,83.68
2019-03-15T08:50:41.686Z,84.44
2019-03-15T08:51:41.680Z,83.20
2019-03-15T08:52:42.241Z,83.31
2019-03-15T08:53:41.653Z,82.48
2019-03-15T08:54:41.687Z,83.14
2019-03-15T08:55:41.632Z,83.55
2019-03-15T08:56:41.618Z,83.55
2019-03-15T08:57:41.609Z,83.35
2019-03-15T08:58:41.598Z,84.58
2019-03-15T08:59:53.812Z,84.58
2019-03-15T09:00:42.585Z,83.55
2019-03-15T09:01:41.563Z,83.86
2019-03-15T09:02:41.556Z,84.38
2019-03-15T09:03:41.539Z,83.65
2019-03-15T09:04:41.534Z,84.11
2019-03-15T09:05:41.530Z,83.86
2019-03-15T09:06:41.506Z,84.58
2019-03-15T09:07:41.494Z,85.71
2019-03-15T09:08:41.483Z,85.51
2019-03-15T09:09:41.472Z,85.03
2019-03-15T09:10:41.484Z,86.37
2019-03-15T09:11:41.453Z,87.71
2019-03-15T09:12:41.440Z,88.23
2019-03-15T09:13:41.426Z,88.70
2019-03-15T09:14:41.422Z,88.12
2019-03-15T09:15:41.430Z,89.05
2019-03-15T09:16:41.393Z,88.90
2019-03-15T09:17:41.392Z,87.57
2019-03-15T09:18:41.411Z,87.05
2019-03-15T09:19:41.362Z,87.15
2019-03-15T09:20:41.348Z,88.80
2019-03-15T09:21:41.413Z,87.26
2019-03-15T09:22:41.325Z,87.98
2019-03-15T09:23:41.328Z,88.90
2019-03-15T09:24:41.314Z,87.57
2019-03-15T09:25:41.296Z,87.36
2019-03-15T09:26:41.294Z,87.42
2019-03-15T09:27:41.273Z,86.91
2019-03-15T09:28:41.256Z,86.95
2019-03-15T09:29:41.245Z,87.36
2019-03-15T09:30:41.246Z,87.57
2019-03-15T09:31:47.541Z,87.36
2019-03-15T09:32:42.211Z,87.67
2019-03-15T09:33:41.200Z,87.36
2019-03-15T09:34:41.190Z,87.67
2019-03-15T09:35:41.193Z,87.77
2019-03-15T09:36:49.835Z,88.04
2019-03-15T09:37:42.153Z,88.56
2019-03-15T09:38:41.151Z,88.96
2019-03-15T09:39:41.133Z,88.45
2019-03-15T09:40:41.124Z,87.69
2019-03-15T09:41:41.128Z,87.73
2019-03-15T09:42:41.106Z,87.32
2019-03-15T09:43:41.089Z,87.12
2019-03-15T09:44:41.078Z,87.42
2019-03-15T09:45:41.066Z,87.42
2019-03-15T09:46:41.086Z,87.84
2019-03-15T09:47:41.042Z,88.45
2019-03-15T09:48:43.660Z,87.94
2019-03-15T09:49:41.026Z,87.73
2019-03-15T09:50:51.296Z,87.73
2019-03-15T09:51:42.026Z,88.35
2019-03-15T09:52:40.987Z,88.80
2019-03-15T09:53:40.975Z,87.87
2019-03-15T09:54:40.963Z,88.49
2019-03-15T09:55:40.957Z,88.84
2019-03-15T09:56:40.943Z,89.36
2019-03-15T09:57:40.965Z,90.28
2019-03-15T09:58:40.917Z,90.08
2019-03-15T09:59:40.907Z,89.97
2019-03-15T10:00:40.893Z,90.59
2019-03-15T10:01:40.897Z,90.69
2019-03-15T10:02:40.875Z,91.62
2019-03-15T10:03:40.909Z,90.33
2019-03-15T10:04:40.859Z,90.28
2019-03-15T10:05:40.846Z,90.12
2019-03-15T10:06:40.835Z,90.84
2019-03-15T10:07:43.270Z,91.83
2019-03-15T10:08:40.802Z,91.31
2019-03-15T10:09:46.074Z,91.72
2019-03-15T10:10:41.779Z,92.14
2019-03-15T10:11:40.780Z,91.52
2019-03-15T10:12:40.760Z,91.72
2019-03-15T10:13:40.747Z,90.59
2019-03-15T10:14:40.766Z,91.38
2019-03-15T10:15:40.765Z,91.58
2019-03-15T10:16:40.714Z,91.47
2019-03-15T10:17:40.706Z,90.96
2019-03-15T10:18:40.694Z,91.58
2019-03-15T10:19:40.679Z,91.38
2019-03-15T10:20:40.684Z,90.66
2019-03-15T10:21:40.656Z,91.89
2019-03-15T10:22:40.647Z,91.27
2019-03-15T10:23:40.665Z,92.10
2019-03-15T10:24:40.627Z,91.58
2019-03-15T10:25:46.791Z,92.20
2019-03-15T10:26:41.616Z,91.78
2019-03-15T10:27:40.593Z,92.30
2019-03-15T10:28:40.581Z,92.86
2019-03-15T10:29:40.576Z,93.06
2019-03-15T10:30:40.572Z,93.48
2019-03-15T10:31:40.546Z,92.55
2019-03-15T10:32:40.543Z,94.03
2019-03-15T10:33:49.852Z,94.24
2019-03-15T10:34:41.526Z,93.83
2019-03-15T10:35:40.507Z,94.13
2019-03-15T10:36:40.490Z,94.55
2019-03-15T10:37:40.479Z,94.40
2019-03-15T10:38:40.468Z,94.85
2019-03-15T10:39:40.471Z,94.65
2019-03-15T10:40:40.447Z,94.40
2019-03-15T10:41:40.449Z,94.30
2019-03-15T10:42:40.424Z,94.20
2019-03-15T10:43:40.412Z,93.58
2019-03-15T10:44:40.403Z,93.12
2019-03-15T10:45:40.391Z,92.76
2019-03-15T10:46:40.561Z,93.48
2019-03-15T10:47:42.450Z,93.43
2019-03-15T10:48:40.355Z,92.82
2019-03-15T10:49:40.349Z,93.33
2019-03-15T10:50:40.333Z,91.89
2019-03-15T10:51:40.335Z,91.99
2019-03-15T10:52:40.311Z,91.85
2019-03-15T10:53:40.305Z,91.44
2019-03-15T10:54:40.292Z,91.85
2019-03-15T10:55:40.283Z,90.72
2019-03-15T10:56:40.290Z,90.57
2019-03-15T10:57:40.254Z,91.91
2019-03-15T10:58:40.254Z,91.80
2019-03-15T10:59:40.234Z,91.55
2019-03-15T11:00:40.220Z,91.97
2019-03-15T11:01:40.226Z,91.97
2019-03-15T11:02:40.196Z,91.70
2019-03-15T11:03:40.185Z,90.47
2019-03-15T11:04:40.173Z,91.39
2019-03-15T11:05:40.166Z,91.33
2019-03-15T11:06:40.185Z,92.05
2019-03-15T11:07:40.148Z,91.29
2019-03-15T11:08:40.169Z,91.53
2019-03-15T11:09:40.117Z,91.64
2019-03-15T11:10:40.107Z,91.02
2019-03-15T11:11:40.100Z,91.23
2019-03-15T11:12:40.088Z,92.46
2019-03-15T11:13:40.081Z,92.97
2019-03-15T11:14:40.073Z,92.46
2019-03-15T11:15:40.052Z,92.97
2019-03-15T11:16:40.039Z,93.18
2019-03-15T11:17:40.025Z,92.97
2019-03-15T11:18:40.016Z,93.18
2019-03-15T11:19:40.021Z,93.33
2019-03-15T11:20:39.998Z,93.59
2019-03-15T11:21:39.981Z,93.08
2019-03-15T11:22:39.970Z,94.11
2019-03-15T11:23:39.956Z,93.29
2019-03-15T11:24:39.959Z,93.18
2019-03-15T11:25:39.935Z,92.87
2019-03-15T11:26:39.935Z,93.08
2019-03-15T11:27:39.918Z,93.12
2019-03-15T11:28:39.901Z,93.70
2019-03-15T11:29:39.922Z,94.05
2019-03-15T11:30:39.886Z,94.52
2019-03-15T11:31:39.866Z,94.07
2019-03-15T11:32:39.856Z,93.35
2019-03-15T11:33:39.847Z,93.82
2019-03-15T11:34:39.840Z,93.51
2019-03-15T11:35:39.835Z,93.04
2019-03-15T11:36:39.850Z,92.77
2019-03-15T11:37:39.801Z,93.08
2019-03-15T11:38:39.793Z,93.02
2019-03-15T11:39:39.777Z,93.54
2019-03-15T11:40:39.771Z,93.64
2019-03-15T11:41:39.760Z,93.54
2019-03-15T11:42:39.756Z,94.05
2019-03-15T11:43:39.732Z,93.70
2019-03-15T11:44:39.721Z,93.80
2019-03-15T11:45:39.745Z,93.80
2019-03-15T11:46:39.700Z,93.90
2019-03-15T11:47:50.732Z,93.70
2019-03-15T11:48:40.673Z,93.29
2019-03-15T11:49:39.662Z,91.64
2019-03-15T11:50:39.652Z,92.16
2019-03-15T11:51:42.441Z,92.97
2019-03-15T11:52:39.647Z,93.90
2019-03-15T11:53:39.622Z,93.24
2019-03-15T11:54:39.605Z,93.14
2019-03-15T11:55:39.595Z,93.55
2019-03-15T11:56:39.585Z,93.76
2019-03-15T11:57:39.606Z,94.17
2019-03-15T11:58:39.563Z,93.44
2019-03-15T11:59:39.551Z,93.55
2019-03-15T12:00:39.543Z,93.55
2019-03-15T12:01:39.528Z,92.89
2019-03-15T12:02:39.518Z,92.07
2019-03-15T12:03:52.102Z,93.20
2019-03-15T12:04:40.489Z,92.23
2019-03-15T12:05:39.480Z,90.53
2019-03-15T12:06:39.489Z,90.22
2019-03-15T12:07:39.456Z,90.94
2019-03-15T12:08:39.460Z,91.55
2019-03-15T12:09:41.000Z,91.55
2019-03-15T12:10:39.432Z,91.86
2019-03-15T12:11:39.412Z,91.97
2019-03-15T12:12:39.406Z,91.25
2019-03-15T12:13:39.419Z,92.69
2019-03-15T12:14:41.085Z,92.38
2019-03-15T12:15:39.372Z,92.38
2019-03-15T12:16:39.355Z,93.51
2019-03-15T12:17:39.344Z,93.86
2019-03-15T12:18:39.346Z,93.61
2019-03-15T12:19:39.367Z,93.65
2019-03-15T12:20:39.318Z,93.55
2019-03-15T12:21:39.299Z,94.17
2019-03-15T12:22:39.287Z,93.24
2019-03-15T12:23:39.274Z,93.65
2019-03-15T12:24:39.273Z,93.82
2019-03-15T12:25:39.267Z,93.61
2019-03-15T12:26:40.605Z,93.51
2019-03-15T12:27:39.228Z,94.48
2019-03-15T12:28:39.219Z,94.78
2019-03-15T12:29:39.208Z,94.68
2019-03-15T12:30:39.215Z,94.68
2019-03-15T12:31:39.186Z,95.92
2019-03-15T12:32:39.172Z,94.73
2019-03-15T12:33:39.169Z,95.45
2019-03-15T12:34:39.152Z,96.58
2019-03-15T12:35:39.151Z,95.86
2019-03-15T12:36:39.131Z,96.37
2019-03-15T12:37:39.116Z,96.47
2019-03-15T12:38:39.106Z,97.09
2019-03-15T12:39:39.094Z,97.03
2019-03-15T12:40:39.096Z,98.02
2019-03-15T12:41:39.074Z,98.06
2019-03-15T12:42:39.161Z,98.58
2019-03-15T12:43:39.052Z,98.16
2019-03-15T12:44:39.039Z,98.37
2019-03-15T12:45:39.044Z,98.47
2019-03-15T12:46:39.016Z,98.27
2019-03-15T12:47:39.006Z,98.79
2019-03-15T12:48:39.002Z,98.47
2019-03-15T12:49:38.988Z,98.22
2019-03-15T12:50:38.984Z,98.02
2019-03-15T12:51:38.966Z,98.12
2019-03-15T12:52:47.132Z,98.74